Terminal Aerodrome Forecast
Issued by NWS

Home | Current Version | Previous Version | Text Only | Print | Product List | Glossary On
Versions: 1 2 3 4 5 6 7 8 9 10 11 12 13 14 15 16 17 18 19 20 21 22 23 24 25 26 27 28
000
FTUS46 KHNX 272332
TAFMCE
TAF
KMCE 272332Z 2800/2824 32006KT P6SM SCT035 BKN060
      TEMPO 2800/2804 BKN035
     FM280600 32003KT 4SM BR SCT015 BKN035
     FM281000 VRB03KT 1 1/2SM BR BKN003
      TEMPO 2813/2817 3/4SM BR BKN002
     FM281900 VRB04KT 5SM HZ BKN200=

USA.gov is the U.S. government's official web portal to all federal, state and local government web resources and services.